Terminal Aerodrome Forecast
Issued by NWS North Platte, NE

Home | Current Version | Previous Version | Text Only | Print | Product List | Glossary Off
Versions: 1 2 3 4 5 6 7 8 9 10 11 12 13 14 15 16 17 18 19

000
FTUS43 KLBF 132320
TAFVTN
TAF
KVTN 132320Z 1400/1424 36007KT P6SM SCT035
     FM140400 04005KT P6SM OVC025
     FM140900 06005KT P6SM OVC015
     FM141200 08004KT 3SM BR OVC008
     FM141500 08006KT P6SM OVC015
     FM141700 09008KT P6SM OVC025
     FM141900 12009KT P6SM BKN035=

USA.gov is the U.S. government's official web portal to all federal, state and local government web resources and services.